Terminal Aerodrome Forecast
Issued by NWS Charleston, WV

Current Version | Previous Version | Graphics & Text | Print | Product List | Glossary On
Versions: 1 2 3 4 5 6 7 8 9 10 11 12 13 14 15 16 17 18 19 20 21 22 23 24 25
580
FTUS41 KRLX 230304 CCA
TAFEKN
TAF COR
KEKN 230304Z 2303/2324 23006KT 6SM -RA BKN050
     FM230800 24005KT 5SM BR OVC025=

USA.gov is the U.S. government's official web portal to all federal, state and local government web resources and services.